Aviation Digital Data Service (ADDS)

Output produced by METARs form (1719 UTC 16 June 2019)
found at http://www.aviationweather.gov/metar/data/
 
GGOV 161700Z 22006KT CAVOK 30/21 Q1012 NOSIG
TAF GGOV 161700Z 1618/1718 25006KT CAVOK